Time;durP1;ratioP1;P1;durP2;ratioP2;P2;SDS_P1;SDS_P2;PMS_P1;PMS_P2;Temp;Humidity;BMP_temperature;BMP_pressure;BME280_temperature;BME280_humidity;BME280_pressure;Samples;Min_cycle;Max_cycle;Signal;HPM_P1;HPM_P2
2022/02/08 00:01:12;;;;;;;14.10;3.15;;;4.70;99.90;;;;;;5084797;28;20115;-48
2022/02/08 00:03:38;;;;;;;19.38;3.50;;;4.70;99.90;;;;;;5054546;28;20028;-48
2022/02/08 00:06:33;;;;;;;18.45;3.13;;;4.70;99.90;;;;;;5074227;28;20457;-49
2022/02/08 00:08:52;;;;;;;20.67;3.42;;;4.70;99.90;;;;;;5071755;28;20025;-48
2022/02/08 00:11:17;;;;;;;17.75;3.28;;;4.70;99.90;;;;;;5080388;28;20070;-51
2022/02/08 00:13:43;;;;;;;24.45;4.05;;;4.70;99.90;;;;;;5070943;28;20028;-51
2022/02/08 00:16:09;;;;;;;26.60;4.85;;;4.70;99.90;;;;;;5079714;28;20409;-48
2022/02/08 00:18:34;;;;;;;41.90;4.00;;;4.70;99.90;;;;;;5070021;28;20471;-49
2022/02/08 00:21:01;;;;;;;30.00;3.58;;;4.60;99.90;;;;;;5074679;28;20028;-48
2022/02/08 00:23:26;;;;;;;23.60;3.90;;;4.70;99.90;;;;;;5070883;28;20474;-47
2022/02/08 00:25:52;;;;;;;21.52;3.05;;;4.70;99.90;;;;;;5061406;28;20030;-47
2022/02/08 00:28:18;;;;;;;21.63;3.40;;;4.70;99.90;;;;;;5070986;28;20058;-49
2022/02/08 00:30:43;;;;;;;26.58;4.10;;;4.60;99.90;;;;;;5061461;28;20381;-47
2022/02/08 00:33:09;;;;;;;23.10;4.38;;;4.70;99.90;;;;;;5078355;28;20726;-53
2022/02/08 00:35:35;;;;;;;20.67;3.95;;;4.70;99.90;;;;;;5079405;28;20107;-50
2022/02/08 00:38:00;;;;;;;20.30;3.90;;;4.70;99.90;;;;;;5074249;28;20040;-51
2022/02/08 00:40:27;;;;;;;21.70;3.35;;;4.70;99.90;;;;;;5076586;28;20031;-51
2022/02/08 00:42:53;;;;;;;23.90;4.50;;;4.70;99.90;;;;;;5070573;28;20482;-51
2022/02/08 00:46:11;;;;;;;14.38;2.95;;;4.70;99.90;;;;;;5077111;28;20019;-51
2022/02/08 00:48:16;;;;;;;33.53;4.07;;;4.70;99.90;;;;;;5056052;28;20089;-52
2022/02/08 00:50:48;;;;;;;15.18;3.60;;;4.70;99.90;;;;;;5041546;28;20050;-47
2022/02/08 00:53:14;;;;;;;18.17;3.25;;;4.70;99.90;;;;;;5071051;28;20032;-50
2022/02/08 00:55:40;;;;;;;27.10;4.43;;;4.70;99.90;;;;;;5080635;28;20032;-47
2022/02/08 00:58:05;;;;;;;19.50;3.75;;;4.70;99.90;;;;;;5068046;28;20037;-47
2022/02/08 01:00:31;;;;;;;24.88;4.28;;;4.70;99.90;;;;;;5070685;28;20124;-49
2022/02/08 01:02:58;;;;;;;25.67;4.32;;;4.70;99.90;;;;;;5075656;28;20099;-48
2022/02/08 01:05:24;;;;;;;19.92;3.28;;;4.80;99.90;;;;;;5082406;28;20027;-48
2022/02/08 01:07:50;;;;;;;23.83;4.30;;;4.80;99.90;;;;;;5077862;28;20393;-47
2022/02/08 01:10:19;;;;;;;23.00;3.80;;;4.80;99.90;;;;;;5081853;28;20493;-47
2022/02/08 01:12:47;;;;;;;20.63;3.47;;;4.80;99.90;;;;;;5075753;28;20097;-49
2022/02/08 01:15:14;;;;;;;21.35;4.28;;;4.80;99.90;;;;;;5053718;28;20029;-47
2022/02/08 01:17:40;;;;;;;26.60;3.97;;;4.80;99.90;;;;;;5069579;28;20063;-47
2022/02/08 01:20:11;;;;;;;15.35;3.42;;;4.80;99.90;;;;;;5082457;28;20429;-49
2022/02/08 01:22:40;;;;;;;21.45;4.05;;;4.80;99.90;;;;;;5074087;28;20032;-49
2022/02/08 01:25:10;;;;;;;12.93;3.92;;;4.80;99.90;;;;;;5079398;28;20028;-47
2022/02/08 01:27:43;;;;;;;18.90;3.10;;;4.80;99.90;;;;;;5068734;28;20025;-47
2022/02/08 01:30:16;;;;;;;23.27;3.95;;;4.80;99.90;;;;;;5067565;28;20036;-47
2022/02/08 01:33:36;;;;;;;22.00;4.97;;;4.80;99.90;;;;;;5074495;28;20032;-47
2022/02/08 01:38:18;;;;;;;24.13;4.15;;;4.70;99.90;;;;;;5074536;28;20133;-48
2022/02/08 01:51:07;;;;;;;24.73;4.90;;;4.70;99.90;;;;;;5070782;28;20063;-49
2022/02/08 01:53:32;;;;;;;24.50;4.53;;;4.70;99.90;;;;;;5070141;28;20123;-48
2022/02/08 01:55:58;;;;;;;28.55;5.13;;;4.70;99.90;;;;;;5081914;28;20020;-50
2022/02/08 01:58:24;;;;;;;17.17;4.10;;;4.70;99.90;;;;;;5073009;28;20082;-49
2022/02/08 02:00:49;;;;;;;29.92;4.63;;;4.70;99.90;;;;;;5047482;28;20065;-48
2022/02/08 02:03:15;;;;;;;28.15;5.13;;;4.70;99.90;;;;;;5072942;28;20039;-51
2022/02/08 02:05:41;;;;;;;29.50;4.78;;;4.60;99.90;;;;;;5063890;28;20037;-47
2022/02/08 02:08:07;;;;;;;27.13;5.30;;;4.70;99.90;;;;;;5071747;28;20032;-49
2022/02/08 02:10:33;;;;;;;24.65;4.55;;;4.60;99.90;;;;;;5073134;28;20074;-50
2022/02/08 02:13:00;;;;;;;33.00;5.30;;;4.60;99.90;;;;;;5073985;28;20038;-49
2022/02/08 02:15:26;;;;;;;21.60;4.80;;;4.60;99.90;;;;;;5079609;28;20064;-51
2022/02/08 02:17:52;;;;;;;26.00;5.18;;;4.60;99.90;;;;;;5075980;28;20082;-50
2022/02/08 02:20:18;;;;;;;23.98;5.45;;;4.60;99.90;;;;;;5079485;28;20032;-51
2022/02/08 02:22:45;;;;;;;32.47;6.15;;;4.50;99.90;;;;;;5065419;28;20132;-50
2022/02/08 02:25:22;;;;;;;34.20;6.18;;;4.50;99.90;;;;;;5079227;28;20521;-49
2022/02/08 02:27:49;;;;;;;42.30;7.72;;;4.40;99.90;;;;;;5073896;28;20413;-49
2022/02/08 02:30:16;;;;;;;28.23;7.15;;;4.40;99.90;;;;;;5073024;28;20074;-50
2022/02/08 02:32:41;;;;;;;27.30;7.57;;;4.30;99.90;;;;;;5073287;28;20056;-50
2022/02/08 02:35:08;;;;;;;26.70;7.90;;;4.40;99.90;;;;;;5073065;28;20493;-49
2022/02/08 02:37:33;;;;;;;34.17;8.80;;;4.40;99.90;;;;;;5072472;28;20024;-49
2022/02/08 02:39:59;;;;;;;38.55;9.15;;;4.40;99.90;;;;;;5080610;28;20021;-50
2022/02/08 02:42:27;;;;;;;32.58;8.10;;;4.40;99.90;;;;;;5081537;28;20021;-49
2022/02/08 02:44:53;;;;;;;31.88;7.93;;;4.40;99.90;;;;;;5071947;28;20020;-51
2022/02/08 02:47:19;;;;;;;34.55;9.15;;;4.30;99.90;;;;;;5081526;28;20028;-50
2022/02/08 02:49:45;;;;;;;41.10;11.07;;;4.30;99.90;;;;;;5072321;28;20028;-50
2022/02/08 02:52:11;;;;;;;29.65;9.73;;;4.40;99.90;;;;;;5081215;28;20031;-50
2022/02/08 02:54:36;;;;;;;32.42;9.52;;;4.40;99.90;;;;;;5072055;28;20089;-52
2022/02/08 02:57:02;;;;;;;41.58;11.57;;;4.50;99.90;;;;;;5076128;28;20031;-48
2022/02/08 02:59:31;;;;;;;42.97;11.02;;;4.50;99.90;;;;;;5080434;28;20075;-47
2022/02/08 03:18:44;;;;;;;32.40;12.02;;;4.70;99.90;;;;;;5082016;28;20072;-49
2022/02/08 03:20:42;;;;;;;32.80;12.55;;;4.80;99.90;;;;;;5061903;28;20159;-51
2022/02/08 03:23:08;;;;;;;35.20;12.68;;;4.80;99.90;;;;;;5078521;28;20054;-50
2022/02/08 03:25:34;;;;;;;33.03;13.15;;;4.80;99.90;;;;;;5079990;28;20103;-48
2022/02/08 03:28:00;;;;;;;38.75;13.90;;;4.80;99.90;;;;;;5071384;28;20500;-50
2022/02/08 03:30:25;;;;;;;46.70;14.15;;;4.90;99.90;;;;;;5061678;28;20462;-47
2022/02/08 03:32:52;;;;;;;45.78;14.68;;;4.90;99.90;;;;;;5079298;28;20101;-48
2022/02/08 03:35:18;;;;;;;35.45;15.48;;;4.90;99.90;;;;;;5080382;28;20020;-50
2022/02/08 03:37:53;;;;;;;40.72;15.27;;;4.90;99.90;;;;;;5070927;28;20037;-51
2022/02/08 03:40:35;;;;;;;46.28;14.63;;;4.90;99.90;;;;;;5075828;28;20475;-52
2022/02/08 03:46:02;;;;;;;45.88;16.83;;;5.00;99.90;;;;;;5045710;28;20040;-51
2022/02/08 03:48:31;;;;;;;35.28;16.00;;;5.00;99.90;;;;;;5058301;28;20450;-48
2022/02/08 03:51:06;;;;;;;47.55;16.48;;;5.00;99.90;;;;;;5068781;28;20119;-49
2022/02/08 03:53:32;;;;;;;47.00;17.05;;;5.00;99.90;;;;;;5075384;28;20042;-47
2022/02/08 03:55:57;;;;;;;40.50;16.02;;;5.10;99.90;;;;;;5074446;28;20020;-48
2022/02/08 03:58:23;;;;;;;52.08;18.70;;;5.10;99.90;;;;;;5066854;28;20115;-48
2022/02/08 04:03:17;;;;;;;41.75;17.75;;;5.20;99.90;;;;;;5076961;28;20020;-48
2022/02/08 04:05:46;;;;;;;49.50;18.08;;;5.20;99.90;;;;;;5079630;28;20488;-51
2022/02/08 04:08:14;;;;;;;55.80;18.85;;;5.20;99.90;;;;;;5070681;28;20063;-47
2022/02/08 04:10:42;;;;;;;42.35;18.58;;;5.20;99.90;;;;;;5071030;28;20440;-47
2022/02/08 04:13:20;;;;;;;52.35;18.80;;;5.30;99.90;;;;;;5077609;28;20060;-48
2022/02/08 04:34:24;;;;;;;61.50;22.63;;;5.50;99.90;;;;;;5069683;28;20025;-48
2022/02/08 04:42:09;;;;;;;57.53;21.38;;;5.60;99.90;;;;;;5078096;28;20393;-47
2022/02/08 04:49:29;;;;;;;60.08;24.42;;;5.60;99.90;;;;;;5075133;28;20028;-48
2022/02/08 04:51:59;;;;;;;63.45;23.08;;;5.70;99.90;;;;;;5080230;28;20037;-47
2022/02/08 04:54:42;;;;;;;50.17;22.40;;;5.60;99.90;;;;;;5082242;28;20112;-47
2022/02/08 05:45:07;;;;;;;41.05;23.25;;;6.10;99.90;;;;;;5076141;28;20477;-50
2022/02/08 05:47:39;;;;;;;58.45;28.33;;;6.20;99.90;;;;;;5078241;28;20424;-50
2022/02/08 05:50:12;;;;;;;63.58;26.50;;;6.10;99.90;;;;;;5073604;28;20050;-49
2022/02/08 05:52:48;;;;;;;54.90;24.08;;;6.10;99.90;;;;;;5082061;28;20498;-50
2022/02/08 05:55:14;;;;;;;58.95;25.25;;;6.20;99.90;;;;;;5078131;28;20362;-49
2022/02/08 05:57:40;;;;;;;51.47;26.52;;;6.20;99.90;;;;;;5076927;28;20031;-51
2022/02/08 06:00:07;;;;;;;51.63;27.25;;;6.20;99.90;;;;;;5073633;28;20020;-52
2022/02/08 06:02:32;;;;;;;58.45;27.17;;;6.20;99.90;;;;;;5064472;28;20037;-49
2022/02/08 06:04:58;;;;;;;54.58;27.98;;;6.20;99.90;;;;;;5079759;28;20042;-50
2022/02/08 06:07:24;;;;;;;58.67;27.58;;;6.20;99.90;;;;;;5088414;28;20012;-49
2022/02/08 06:09:54;;;;;;;56.85;28.20;;;6.20;99.90;;;;;;5075485;28;20032;-52
2022/02/08 06:12:23;;;;;;;64.15;28.42;;;6.20;99.90;;;;;;5072398;28;20120;-52
2022/02/08 06:14:56;;;;;;;57.38;29.33;;;6.30;99.90;;;;;;5081763;28;20032;-52
2022/02/08 06:17:22;;;;;;;62.50;28.15;;;6.20;99.90;;;;;;5072582;28;20020;-51
2022/02/08 06:19:50;;;;;;;64.40;29.83;;;6.30;99.90;;;;;;5068592;28;20025;-50
2022/02/08 06:22:15;;;;;;;62.88;27.95;;;6.30;99.90;;;;;;5077236;28;20046;-49
2022/02/08 06:24:41;;;;;;;61.00;30.00;;;6.30;99.90;;;;;;5081161;28;20028;-51
2022/02/08 06:27:08;;;;;;;67.65;29.85;;;6.40;99.90;;;;;;5076149;28;20465;-51
2022/02/08 06:29:34;;;;;;;64.75;30.20;;;6.30;99.90;;;;;;5076196;28;20417;-50
2022/02/08 06:32:00;;;;;;;68.20;29.63;;;6.30;99.90;;;;;;5073317;28;20112;-51
2022/02/08 06:34:30;;;;;;;63.40;30.25;;;6.30;99.90;;;;;;5072109;28;20501;-51
2022/02/08 06:37:01;;;;;;;63.95;29.95;;;6.30;99.90;;;;;;5074064;28;20107;-50
2022/02/08 06:39:32;;;;;;;58.27;28.23;;;6.40;99.90;;;;;;5077390;28;20078;-51
2022/02/08 06:41:58;;;;;;;69.93;30.13;;;6.40;99.90;;;;;;5080595;28;20112;-52
2022/02/08 06:44:24;;;;;;;64.38;29.35;;;6.40;99.90;;;;;;5080132;28;20285;-51
2022/02/08 06:46:49;;;;;;;66.50;29.67;;;6.50;99.90;;;;;;5076466;28;20363;-51
2022/02/08 06:49:15;;;;;;;67.85;30.25;;;6.50;99.90;;;;;;5071150;28;20024;-49
2022/02/08 06:51:40;;;;;;;59.70;28.98;;;6.50;99.90;;;;;;5074115;28;20082;-49
2022/02/08 06:54:07;;;;;;;64.93;29.20;;;6.60;99.90;;;;;;5076903;28;20072;-52
2022/02/08 06:56:32;;;;;;;67.00;30.75;;;6.60;99.90;;;;;;5076615;28;20032;-53
2022/02/08 06:59:05;;;;;;;70.03;28.88;;;6.60;99.90;;;;;;5079547;28;20028;-50
2022/02/08 07:01:33;;;;;;;70.85;30.10;;;6.60;99.90;;;;;;5077315;28;20072;-52
2022/02/08 07:04:00;;;;;;;60.40;28.52;;;6.70;99.90;;;;;;5070837;28;20029;-49
2022/02/08 07:06:26;;;;;;;58.50;28.70;;;6.70;99.90;;;;;;5067923;28;20041;-52
2022/02/08 07:08:51;;;;;;;61.65;29.00;;;6.70;99.90;;;;;;5068305;28;20036;-51
2022/02/08 07:11:17;;;;;;;62.90;29.45;;;6.70;99.90;;;;;;5075507;28;20094;-51
2022/02/08 07:13:45;;;;;;;71.95;30.45;;;6.70;99.90;;;;;;5071616;28;20028;-50
2022/02/08 07:16:12;;;;;;;65.15;29.58;;;6.80;99.90;;;;;;5072677;28;20028;-51
2022/02/08 07:18:37;;;;;;;61.67;27.70;;;6.80;99.90;;;;;;5072296;28;20020;-48
2022/02/08 07:21:03;;;;;;;57.90;28.70;;;6.90;99.90;;;;;;5072438;28;20047;-50
2022/02/08 07:23:29;;;;;;;60.60;28.50;;;7.00;99.90;;;;;;5071514;28;20128;-50
2022/02/08 07:25:55;;;;;;;71.97;25.77;;;7.00;99.90;;;;;;5067422;28;20451;-48
2022/02/08 07:28:21;;;;;;;67.88;29.00;;;7.10;99.90;;;;;;5076108;28;20231;-49
2022/02/08 07:30:47;;;;;;;61.08;26.67;;;7.20;99.90;;;;;;5080383;28;20080;-47
2022/02/08 07:33:12;;;;;;;51.40;25.73;;;7.10;99.90;;;;;;5071530;28;20114;-53
2022/02/08 07:38:28;;;;;;;61.72;28.95;;;7.20;99.90;;;;;;5080523;28;20020;-50
2022/02/08 07:43:20;;;;;;;71.65;29.63;;;7.10;99.90;;;;;;5077882;28;20106;-48
2022/02/08 07:45:46;;;;;;;66.82;30.15;;;7.10;99.90;;;;;;5095549;22;20024;-50
2022/02/08 07:48:11;;;;;;;66.13;30.05;;;7.00;99.90;;;;;;5063241;28;20067;-56
2022/02/08 07:50:38;;;;;;;61.85;29.00;;;7.00;99.90;;;;;;5069095;28;20349;-55
2022/02/08 07:53:04;;;;;;;71.82;29.90;;;7.10;99.90;;;;;;5059063;28;20025;-54
2022/02/08 07:55:30;;;;;;;72.32;30.85;;;7.00;99.90;;;;;;5066526;28;20028;-57
2022/02/08 07:57:55;;;;;;;66.40;27.85;;;7.10;99.90;;;;;;5053318;28;20505;-53
2022/02/08 08:00:22;;;;;;;75.47;31.13;;;7.10;99.90;;;;;;5045550;28;20072;-48
2022/02/08 08:02:49;;;;;;;69.78;31.15;;;7.10;99.90;;;;;;5039907;28;20441;-48
2022/02/08 08:05:15;;;;;;;73.93;32.20;;;7.10;99.90;;;;;;5046359;28;20478;-50
2022/02/08 08:07:41;;;;;;;61.97;28.75;;;7.10;99.90;;;;;;5051528;28;20037;-53
2022/02/08 08:10:08;;;;;;;71.30;28.90;;;7.10;99.90;;;;;;5063737;28;20037;-48
2022/02/08 08:12:36;;;;;;;71.45;28.42;;;7.20;99.90;;;;;;5050916;28;20505;-53
2022/02/08 08:15:10;;;;;;;73.38;28.45;;;7.20;99.90;;;;;;5053199;28;20469;-52
2022/02/08 08:17:54;;;;;;;68.05;27.83;;;7.20;99.90;;;;;;5057117;28;20112;-51
2022/02/08 08:20:20;;;;;;;69.10;27.60;;;7.30;99.90;;;;;;5047146;28;20112;-50
2022/02/08 08:22:46;;;;;;;69.78;27.70;;;7.30;99.90;;;;;;5059043;28;20120;-54
2022/02/08 08:25:11;;;;;;;60.53;25.70;;;7.30;99.90;;;;;;5061858;28;20017;-52
2022/02/08 08:27:37;;;;;;;66.82;27.20;;;7.30;99.90;;;;;;5068030;28;20362;-51
2022/02/08 08:30:03;;;;;;;73.32;28.35;;;7.40;99.90;;;;;;5051005;28;20028;-49
2022/02/08 08:32:32;;;;;;;64.38;27.75;;;7.40;99.90;;;;;;5055639;28;20539;-53
2022/02/08 08:34:57;;;;;;;59.75;26.23;;;7.40;99.90;;;;;;5070578;28;20045;-52
2022/02/08 08:37:23;;;;;;;57.00;25.73;;;7.40;99.90;;;;;;5058614;28;20025;-50
2022/02/08 08:39:51;;;;;;;63.92;26.33;;;7.50;99.90;;;;;;5058524;28;20091;-48
2022/02/08 08:50:55;;;;;;;59.20;24.15;;;7.60;99.90;;;;;;5055618;28;20133;-51
2022/02/08 08:53:23;;;;;;;62.13;24.52;;;7.60;99.90;;;;;;5033091;28;20499;-49
2022/02/08 08:55:48;;;;;;;62.55;24.25;;;7.60;99.90;;;;;;5060215;28;20025;-47
2022/02/08 08:58:14;;;;;;;55.15;23.08;;;7.70;99.90;;;;;;5064052;28;20087;-48
2022/02/08 09:00:40;;;;;;;56.00;22.77;;;7.70;99.90;;;;;;5058995;28;20052;-48
2022/02/08 09:03:05;;;;;;;46.42;21.98;;;7.70;99.90;;;;;;5066167;28;20029;-47
2022/02/08 09:05:31;;;;;;;47.75;21.25;;;7.70;99.90;;;;;;5058293;28;20035;-51
2022/02/08 09:07:57;;;;;;;49.00;21.25;;;7.80;99.90;;;;;;5066673;28;20069;-47
2022/02/08 09:10:28;;;;;;;51.05;21.00;;;7.80;99.90;;;;;;5061357;28;20152;-49
2022/02/08 09:15:54;;;;;;;47.70;20.45;;;7.80;99.90;;;;;;5058344;28;20470;-49
2022/02/08 09:24:10;;;;;;;43.88;19.45;;;7.90;99.90;;;;;;5062589;28;20021;-46
2022/02/08 09:28:57;;;;;;;43.03;18.33;;;8.00;99.90;;;;;;5056407;28;20192;-54
2022/02/08 09:31:23;;;;;;;34.58;17.35;;;8.00;99.90;;;;;;5060718;28;20036;-54
2022/02/08 09:33:49;;;;;;;39.40;17.50;;;8.10;99.90;;;;;;5054105;28;20032;-53
2022/02/08 09:36:21;;;;;;;42.10;16.85;;;8.00;99.90;;;;;;5064625;28;20392;-55
2022/02/08 09:38:47;;;;;;;27.58;13.73;;;8.00;99.90;;;;;;5063572;28;20052;-46
2022/02/08 09:41:14;;;;;;;30.65;15.13;;;8.10;99.90;;;;;;5065108;28;20430;-49
2022/02/08 09:43:40;;;;;;;36.30;15.52;;;8.10;99.90;;;;;;5064580;28;20028;-51
2022/02/08 09:46:07;;;;;;;31.45;14.43;;;8.10;99.90;;;;;;5064616;28;20032;-50
2022/02/08 09:48:43;;;;;;;34.53;15.35;;;8.00;99.90;;;;;;5065360;28;20553;-51
2022/02/08 09:51:11;;;;;;;29.17;13.93;;;8.10;99.90;;;;;;5054376;28;20040;-49
2022/02/08 09:53:42;;;;;;;28.85;12.80;;;8.10;99.90;;;;;;5060752;28;20486;-53
2022/02/08 09:56:10;;;;;;;33.00;13.00;;;8.10;99.90;;;;;;5053086;28;20037;-55
2022/02/08 09:58:35;;;;;;;30.73;12.35;;;8.10;99.90;;;;;;5060407;28;20064;-53
2022/02/08 10:01:10;;;;;;;31.80;12.80;;;8.10;99.90;;;;;;5053449;28;20136;-53
2022/02/08 10:03:47;;;;;;;26.50;12.73;;;8.10;99.90;;;;;;5060707;28;20111;-56
2022/02/08 10:06:13;;;;;;;26.85;12.20;;;8.20;99.90;;;;;;5059431;28;20110;-52
2022/02/08 10:08:39;;;;;;;33.70;12.65;;;8.20;99.90;;;;;;5043337;28;20068;-54
2022/02/08 10:11:24;;;;;;;29.25;11.23;;;8.20;99.90;;;;;;5047135;28;20422;-51
2022/02/08 10:14:00;;;;;;;28.73;11.40;;;8.20;99.90;;;;;;5061526;28;20066;-51
2022/02/08 10:22:09;;;;;;;30.83;10.93;;;8.20;99.90;;;;;;5055004;28;20040;-50
2022/02/08 10:24:37;;;;;;;31.20;10.70;;;8.20;99.90;;;;;;5064703;28;20021;-55
2022/02/08 10:27:18;;;;;;;25.73;11.48;;;8.20;99.90;;;;;;5046502;28;20017;-51
2022/02/08 10:30:47;;;;;;;26.50;10.20;;;8.30;99.90;;;;;;5057454;28;20428;-50
2022/02/08 10:38:09;;;;;;;29.15;9.93;;;8.30;99.90;;;;;;5052511;28;20104;-50
2022/02/08 10:40:38;;;;;;;23.40;8.20;;;8.30;99.90;;;;;;5059511;28;20029;-50
2022/02/08 10:43:07;;;;;;;27.45;9.18;;;8.30;99.90;;;;;;5056743;28;20032;-51
2022/02/08 10:45:38;;;;;;;25.60;9.23;;;8.30;99.90;;;;;;5062057;28;20060;-50
2022/02/08 10:48:07;;;;;;;29.63;8.95;;;8.30;99.90;;;;;;5047773;28;20080;-48
2022/02/08 10:50:37;;;;;;;27.67;8.35;;;8.30;99.90;;;;;;5032696;28;20065;-50
2022/02/08 10:53:06;;;;;;;25.10;8.32;;;8.30;99.90;;;;;;5055749;28;20090;-50
2022/02/08 10:58:26;;;;;;;24.02;8.43;;;8.40;99.90;;;;;;5063751;28;20057;-51
2022/02/08 11:01:05;;;;;;;25.35;8.05;;;8.30;99.90;;;;;;5063510;28;20025;-54
2022/02/08 11:03:48;;;;;;;21.47;8.93;;;8.30;99.90;;;;;;5043025;28;20535;-52
2022/02/08 11:06:24;;;;;;;21.88;9.30;;;8.30;99.90;;;;;;5064795;28;20489;-54
2022/02/08 11:23:05;;;;;;;23.42;7.63;;;8.30;99.90;;;;;;5057449;28;20037;-51
2022/02/08 11:25:39;;;;;;;28.58;7.70;;;8.30;99.90;;;;;;5031345;28;20029;-51
2022/02/08 11:28:23;;;;;;;31.33;8.07;;;8.30;99.90;;;;;;5051907;28;20025;-50
2022/02/08 11:31:29;;;;;;;24.90;8.10;;;8.40;99.90;;;;;;5052231;28;20040;-51
2022/02/08 11:58:30;;;;;;;22.35;7.90;;;8.40;99.90;;;;;;5061637;28;20029;-48
2022/02/08 12:00:35;;;;;;;34.03;9.50;;;8.40;99.90;;;;;;5027177;28;20521;-53
2022/02/08 12:06:00;;;;;;;30.85;8.88;;;8.40;99.90;;;;;;5057834;28;20048;-49
2022/02/08 12:08:26;;;;;;;25.35;8.43;;;8.40;99.90;;;;;;5052415;28;20116;-51
2022/02/08 12:11:15;;;;;;;29.63;8.20;;;8.40;99.90;;;;;;5050901;28;20139;-48
2022/02/08 12:26:57;;;;;;;33.38;8.35;;;8.40;99.90;;;;;;5050723;28;20489;-48
2022/02/08 12:33:07;;;;;;;23.25;8.13;;;8.50;99.90;;;;;;5070413;28;20031;-54
2022/02/08 12:49:56;;;;;;;19.77;6.13;;;8.40;99.90;;;;;;5061900;28;20147;-47
2022/02/08 13:00:56;;;;;;;24.30;6.72;;;8.50;99.90;;;;;;5066265;28;20036;-47
2022/02/08 13:14:43;;;;;;;13.32;6.03;;;8.50;99.90;;;;;;5050922;28;20458;-46
2022/02/08 14:05:57;;;;;;;11.82;4.57;;;8.60;99.90;;;;;;5052836;28;20056;-50
2022/02/08 14:08:54;;;;;;;8.35;4.57;;;8.60;99.90;;;;;;5056016;28;20025;-51
2022/02/08 14:11:43;;;;;;;10.02;4.55;;;8.60;99.90;;;;;;5061788;28;20040;-51
2022/02/08 14:14:16;;;;;;;9.75;4.07;;;8.60;99.90;;;;;;5051935;28;20086;-50
2022/02/08 14:21:55;;;;;;;8.18;3.65;;;8.60;99.90;;;;;;5049373;28;20029;-48
2022/02/08 14:24:35;;;;;;;8.80;3.80;;;8.60;99.90;;;;;;5062409;28;20477;-50
2022/02/08 14:30:00;;;;;;;6.50;3.03;;;8.70;99.90;;;;;;5004329;28;20042;-51
2022/02/08 15:09:53;;;;;;;5.55;3.45;;;8.70;99.90;;;;;;5067566;28;20378;-49
2022/02/08 15:12:20;;;;;;;6.28;3.30;;;8.60;99.90;;;;;;5051565;28;20239;-51
2022/02/08 15:14:50;;;;;;;4.60;3.28;;;8.70;99.90;;;;;;5049994;28;20037;-50
2022/02/08 15:17:17;;;;;;;6.05;3.30;;;8.60;99.90;;;;;;5038899;28;20108;-51
2022/02/08 15:19:45;;;;;;;4.60;3.20;;;8.70;99.90;;;;;;5062161;28;20056;-49
2022/02/08 15:22:11;;;;;;;5.72;3.22;;;8.70;99.90;;;;;;5057482;28;20032;-50
2022/02/08 15:24:37;;;;;;;8.10;3.42;;;8.60;99.90;;;;;;5057546;28;20079;-49
2022/02/08 15:27:03;;;;;;;5.50;3.85;;;8.70;99.90;;;;;;5056551;28;20180;-50
2022/02/08 15:29:31;;;;;;;7.70;3.60;;;8.70;99.90;;;;;;5065573;28;20040;-51
2022/02/08 15:31:58;;;;;;;4.88;3.88;;;8.60;99.90;;;;;;5057772;28;20028;-51
2022/02/08 15:34:23;;;;;;;5.75;3.47;;;8.60;99.90;;;;;;5061720;28;20024;-51
2022/02/08 15:36:49;;;;;;;7.22;4.07;;;8.60;99.90;;;;;;5056911;28;20039;-50
2022/02/08 15:39:16;;;;;;;5.70;3.88;;;8.60;99.90;;;;;;5063212;28;20036;-51
2022/02/08 15:41:42;;;;;;;8.07;3.53;;;8.60;99.90;;;;;;5058542;28;20083;-49
2022/02/08 15:44:11;;;;;;;6.75;3.78;;;8.60;99.90;;;;;;5062466;28;20029;-50
2022/02/08 15:46:36;;;;;;;7.20;3.42;;;8.60;99.90;;;;;;5066181;28;20036;-51
2022/02/08 15:49:03;;;;;;;7.78;3.47;;;8.60;99.90;;;;;;5063981;28;20017;-50
2022/02/08 15:51:39;;;;;;;3.92;2.78;;;8.60;99.90;;;;;;5065219;28;20050;-51
2022/02/08 16:05:14;;;;;;;4.80;2.88;;;8.60;99.90;;;;;;5054114;28;20100;-51
2022/02/08 16:07:50;;;;;;;4.22;2.65;;;8.60;99.90;;;;;;5042783;28;20515;-52
2022/02/08 16:10:25;;;;;;;3.30;2.67;;;8.60;99.90;;;;;;5061788;28;20081;-52
2022/02/08 16:13:12;;;;;;;6.35;2.90;;;8.60;99.90;;;;;;5063869;28;20410;-50
2022/02/08 16:15:53;;;;;;;4.50;2.30;;;8.60;99.90;;;;;;5061516;28;20113;-53
2022/02/08 16:24:00;;;;;;;5.53;2.60;;;8.60;99.90;;;;;;5062769;28;20100;-48
2022/02/08 16:26:43;;;;;;;4.53;2.28;;;8.60;99.90;;;;;;5060379;28;20128;-51
2022/02/08 16:32:31;;;;;;;4.15;2.15;;;8.60;99.90;;;;;;5059982;28;20036;-50
2022/02/08 16:59:08;;;;;;;10.60;4.60;;;8.40;99.90;;;;;;5061922;28;20025;-49
2022/02/08 17:01:36;;;;;;;5.10;2.40;;;8.30;99.90;;;;;;5065881;28;20432;-49
2022/02/08 17:04:05;;;;;;;8.23;2.53;;;8.40;99.90;;;;;;5056552;28;20060;-49
2022/02/08 17:06:30;;;;;;;9.50;2.45;;;8.30;99.90;;;;;;5060602;28;20028;-49
2022/02/08 17:09:04;;;;;;;7.38;2.80;;;8.30;99.90;;;;;;5064603;28;20040;-50
2022/02/08 17:11:45;;;;;;;9.40;2.95;;;8.30;99.90;;;;;;5048553;28;20060;-49
2022/02/08 17:14:30;;;;;;;13.02;3.45;;;8.40;99.90;;;;;;5052592;28;20025;-49
2022/02/08 17:17:17;;;;;;;10.13;3.95;;;8.40;99.90;;;;;;5056394;28;20051;-48
2022/02/08 17:34:23;;;;;;;8.88;3.67;;;8.30;99.90;;;;;;5062749;28;20040;-49
2022/02/08 17:37:48;;;;;;;8.68;3.83;;;8.30;99.90;;;;;;5055077;28;20044;-49
2022/02/08 17:47:39;;;;;;;6.25;3.85;;;8.30;99.90;;;;;;5056219;28;20067;-48
2022/02/08 17:50:07;;;;;;;9.77;4.30;;;8.30;99.90;;;;;;5053157;28;20025;-49
2022/02/08 17:52:34;;;;;;;10.70;3.72;;;8.30;99.90;;;;;;5060368;28;20029;-49
2022/02/08 17:55:00;;;;;;;6.35;3.70;;;8.30;99.90;;;;;;5066515;28;20048;-50
2022/02/08 17:57:25;;;;;;;6.03;3.17;;;8.30;99.90;;;;;;5060321;28;20393;-49
2022/02/08 17:59:54;;;;;;;6.65;3.30;;;8.30;99.90;;;;;;5034164;28;20131;-49
2022/02/08 18:02:21;;;;;;;10.20;4.15;;;8.30;99.90;;;;;;5051946;28;20108;-50
2022/02/08 18:04:47;;;;;;;13.43;5.38;;;8.30;99.90;;;;;;5051821;28;20025;-49
2022/02/08 18:07:17;;;;;;;10.75;4.95;;;8.30;99.90;;;;;;5052171;28;20033;-50
2022/02/08 18:09:43;;;;;;;7.68;4.85;;;8.30;99.90;;;;;;5052082;28;20037;-50
2022/02/08 18:12:09;;;;;;;9.23;4.68;;;8.30;99.90;;;;;;5035008;28;20585;-49
2022/02/08 18:14:34;;;;;;;10.07;4.78;;;8.30;99.90;;;;;;5051674;28;20029;-51
2022/02/08 18:17:09;;;;;;;8.52;4.38;;;8.20;99.90;;;;;;5051346;28;20068;-50
2022/02/08 18:19:38;;;;;;;11.25;5.65;;;8.20;99.90;;;;;;5051877;28;20178;-49
2022/02/08 19:12:35;;;;;;;8.75;5.65;;;8.30;99.90;;;;;;5032858;28;20482;-49
2022/02/08 19:15:22;;;;;;;11.00;6.85;;;8.30;99.90;;;;;;5056988;28;20033;-48
2022/02/08 19:20:38;;;;;;;10.02;6.30;;;8.30;99.90;;;;;;5059282;28;20033;-48
2022/02/08 19:23:03;;;;;;;11.93;6.90;;;8.40;99.90;;;;;;5067787;28;20043;-48
2022/02/08 19:25:29;;;;;;;11.60;6.22;;;8.30;99.90;;;;;;5058028;28;20119;-51
2022/02/08 19:27:55;;;;;;;13.18;7.20;;;8.40;99.90;;;;;;5068656;28;20028;-54
2022/02/08 19:30:21;;;;;;;11.73;7.25;;;8.40;99.90;;;;;;5059430;28;20029;-56
2022/02/08 19:32:47;;;;;;;11.63;7.20;;;8.40;99.90;;;;;;5068490;28;20541;-49
2022/02/08 19:35:14;;;;;;;13.98;8.23;;;8.40;99.90;;;;;;5057771;28;20033;-50
2022/02/08 19:37:40;;;;;;;13.70;8.70;;;8.40;99.90;;;;;;5067523;28;20029;-51
2022/02/08 19:40:07;;;;;;;12.95;8.18;;;8.40;99.90;;;;;;5060291;28;20029;-49
2022/02/08 19:42:34;;;;;;;12.30;7.75;;;8.40;99.90;;;;;;5066219;28;20033;-51
2022/02/08 19:45:10;;;;;;;10.88;6.97;;;8.40;99.90;;;;;;5060295;28;20031;-51
2022/02/08 19:47:35;;;;;;;9.35;7.00;;;8.40;99.90;;;;;;5066790;28;20119;-49
2022/02/08 19:50:01;;;;;;;13.32;6.28;;;8.40;99.90;;;;;;5060219;28;20112;-53
2022/02/08 19:52:28;;;;;;;12.18;7.07;;;8.40;99.90;;;;;;5065291;28;20033;-50
2022/02/08 19:55:21;;;;;;;11.38;7.60;;;8.40;99.90;;;;;;5059679;28;20032;-50
2022/02/08 19:57:40;;;;;;;15.13;9.02;;;8.40;99.90;;;;;;5058668;28;20040;-50
2022/02/08 20:00:10;;;;;;;14.00;8.43;;;8.40;99.90;;;;;;5062514;28;20440;-50
2022/02/08 20:02:43;;;;;;;15.05;8.88;;;8.30;99.90;;;;;;5043636;28;20028;-50
2022/02/08 20:05:11;;;;;;;16.25;9.25;;;8.30;99.90;;;;;;5055382;28;20053;-50
2022/02/08 20:07:36;;;;;;;20.38;10.25;;;8.30;99.90;;;;;;5059714;28;20029;-50
2022/02/08 20:10:03;;;;;;;18.85;9.95;;;8.30;99.90;;;;;;5061803;28;20017;-52
2022/02/08 20:12:28;;;;;;;17.20;8.90;;;8.30;99.90;;;;;;5063361;28;20024;-52
2022/02/08 20:14:55;;;;;;;17.38;9.50;;;8.40;99.90;;;;;;5057567;28;20082;-53
2022/02/08 20:17:22;;;;;;;16.10;8.63;;;8.40;99.90;;;;;;5057331;28;20041;-50
2022/02/08 20:19:48;;;;;;;17.10;10.13;;;8.40;99.90;;;;;;5067601;28;20063;-51
2022/02/08 20:22:14;;;;;;;21.75;10.65;;;8.40;99.90;;;;;;5059896;28;20404;-51
2022/02/08 20:24:40;;;;;;;19.13;9.63;;;8.50;99.90;;;;;;5059383;28;20039;-50
2022/02/08 20:27:35;;;;;;;17.73;10.80;;;8.40;99.90;;;;;;5043264;28;20029;-52
2022/02/08 20:30:00;;;;;;;19.63;10.63;;;8.50;99.90;;;;;;5059193;28;20108;-50